createdAt,value
2023-02-15T00:01:13.637Z,27.65
2023-02-15T00:03:41.030Z,27.90
2023-02-15T00:06:10.799Z,27.77
2023-02-15T00:08:37.947Z,27.77
2023-02-15T00:11:16.891Z,27.92
2023-02-15T00:13:46.311Z,28.50
2023-02-15T00:16:14.196Z,28.05
2023-02-15T00:18:45.775Z,27.20
2023-02-15T00:21:15.307Z,28.05
2023-02-15T00:23:42.320Z,27.35
2023-02-15T00:26:11.951Z,28.60
2023-02-15T00:28:39.769Z,26.70
2023-02-15T00:31:12.123Z,27.13
2023-02-15T00:33:40.451Z,26.75
2023-02-15T00:36:09.489Z,26.77
2023-02-15T00:38:41.314Z,26.25
2023-02-15T00:41:09.745Z,28.20
2023-02-15T00:43:37.858Z,26.02
2023-02-15T00:46:06.326Z,28.20
2023-02-15T00:48:33.707Z,27.65
2023-02-15T00:51:01.734Z,27.27
2023-02-15T00:53:30.084Z,28.30
2023-02-15T00:56:00.826Z,27.60
2023-02-15T00:58:28.109Z,42.40
2023-02-15T01:00:55.488Z,27.17
2023-02-15T01:03:25.158Z,25.75
2023-02-15T01:05:52.516Z,25.98
2023-02-15T01:08:19.569Z,26.10
2023-02-15T01:10:46.917Z,26.38
2023-02-15T01:13:15.640Z,26.83
2023-02-15T01:15:44.224Z,26.98
2023-02-15T01:18:12.652Z,26.67
2023-02-15T01:20:40.904Z,26.60
2023-02-15T01:23:11.126Z,27.35
2023-02-15T01:25:38.510Z,27.33
2023-02-15T01:28:06.155Z,26.83
2023-02-15T01:30:33.953Z,24.30
2023-02-15T01:33:01.336Z,26.67
2023-02-15T01:35:31.575Z,25.40
2023-02-15T01:38:01.335Z,27.08
2023-02-15T01:40:28.866Z,25.05
2023-02-15T01:42:58.257Z,25.70
2023-02-15T01:45:33.030Z,26.05
2023-02-15T01:48:00.084Z,23.98
2023-02-15T01:50:36.925Z,25.90
2023-02-15T01:53:23.112Z,25.52
2023-02-15T01:56:10.045Z,25.70
2023-02-15T01:58:38.096Z,26.05
2023-02-15T02:01:08.557Z,25.70
2023-02-15T02:04:18.452Z,24.77
2023-02-15T02:06:48.974Z,25.17
2023-02-15T02:09:16.221Z,25.25
2023-02-15T02:11:47.329Z,25.98
2023-02-15T02:14:14.964Z,26.98
2023-02-15T02:16:53.691Z,25.73
2023-02-15T02:19:35.842Z,25.92
2023-02-15T02:22:09.387Z,27.10
2023-02-15T02:24:39.241Z,26.38
2023-02-15T02:27:42.339Z,25.60
2023-02-15T02:30:34.224Z,26.33
2023-02-15T02:33:38.369Z,26.75
2023-02-15T02:36:28.423Z,26.75
2023-02-15T02:39:12.355Z,28.63
2023-02-15T02:41:45.667Z,27.23
2023-02-15T02:44:23.720Z,25.98
2023-02-15T02:47:00.319Z,26.20
2023-02-15T02:49:37.928Z,27.75
2023-02-15T02:52:41.822Z,28.42
2023-02-15T02:55:24.302Z,28.05
2023-02-15T02:57:57.170Z,27.65
2023-02-15T03:00:28.628Z,26.70
2023-02-15T03:03:03.615Z,28.05
2023-02-15T03:05:34.845Z,27.77
2023-02-15T03:08:04.906Z,25.95
2023-02-15T03:10:35.826Z,26.33
2023-02-15T03:13:03.741Z,27.30
2023-02-15T03:15:40.291Z,26.20
2023-02-15T03:18:12.273Z,28.98
2023-02-15T03:20:39.737Z,26.83
2023-02-15T03:23:17.747Z,28.30
2023-02-15T03:25:52.696Z,25.95
2023-02-15T03:28:27.954Z,27.67
2023-02-15T03:30:59.805Z,27.35
2023-02-15T03:33:29.851Z,28.55
2023-02-15T03:36:12.833Z,26.33
2023-02-15T03:38:55.686Z,27.45
2023-02-15T03:41:29.107Z,27.10
2023-02-15T03:44:01.847Z,26.30
2023-02-15T03:46:47.667Z,27.00
2023-02-15T03:49:53.246Z,26.00
2023-02-15T03:52:22.540Z,25.65
2023-02-15T03:54:50.880Z,28.70
2023-02-15T03:57:37.824Z,29.02
2023-02-15T04:00:13.179Z,28.45
2023-02-15T04:02:52.590Z,27.52
2023-02-15T04:05:19.983Z,28.45
2023-02-15T04:07:47.400Z,27.73
2023-02-15T04:10:17.008Z,29.45
2023-02-15T04:12:46.821Z,28.42
2023-02-15T04:15:16.564Z,28.65
2023-02-15T04:17:46.408Z,30.40
2023-02-15T04:20:16.036Z,29.15
2023-02-15T04:22:43.544Z,28.30
2023-02-15T04:25:10.670Z,28.70
2023-02-15T04:27:39.771Z,29.17
2023-02-15T04:30:07.762Z,28.27
2023-02-15T04:32:36.124Z,29.63
2023-02-15T04:35:06.085Z,27.90
2023-02-15T04:37:34.344Z,28.63
2023-02-15T04:40:01.825Z,27.45
2023-02-15T04:42:29.278Z,29.42
2023-02-15T04:44:56.313Z,29.83
2023-02-15T04:47:23.729Z,29.10
2023-02-15T04:49:52.980Z,31.08
2023-02-15T04:52:22.808Z,31.58
2023-02-15T04:54:49.903Z,30.35
2023-02-15T04:57:17.364Z,28.45
2023-02-15T04:59:46.703Z,30.50
2023-02-15T05:02:14.113Z,31.67
2023-02-15T05:04:41.247Z,30.88
2023-02-15T05:07:10.932Z,33.22
2023-02-15T05:09:40.407Z,31.13
2023-02-15T05:12:07.807Z,33.78
2023-02-15T05:14:37.098Z,29.85
2023-02-15T05:17:04.460Z,31.17
2023-02-15T05:19:31.714Z,31.55
2023-02-15T05:21:59.306Z,31.05
2023-02-15T05:24:26.355Z,31.00
2023-02-15T05:26:53.790Z,31.90
2023-02-15T05:29:23.318Z,32.83
2023-02-15T05:31:50.908Z,29.58
2023-02-15T05:34:18.054Z,30.73
2023-02-15T05:36:45.470Z,30.98
2023-02-15T05:39:12.505Z,30.33
2023-02-15T05:41:39.905Z,30.77
2023-02-15T05:44:09.159Z,31.75
2023-02-15T05:46:36.552Z,31.50
2023-02-15T05:49:06.539Z,32.38
2023-02-15T05:51:33.973Z,32.28
2023-02-15T05:54:03.441Z,32.22
2023-02-15T05:56:30.806Z,32.70
2023-02-15T05:58:57.923Z,31.63
2023-02-15T06:01:25.393Z,31.60
2023-02-15T06:03:53.088Z,32.80
2023-02-15T06:06:20.513Z,31.38
2023-02-15T06:08:49.934Z,30.10
2023-02-15T06:11:17.306Z,31.33
2023-02-15T06:13:44.386Z,30.98
2023-02-15T06:16:14.053Z,30.63
2023-02-15T06:18:41.232Z,30.60
2023-02-15T06:21:10.940Z,31.63
2023-02-15T06:23:40.496Z,32.45
2023-02-15T06:26:07.919Z,31.20
2023-02-15T06:28:35.040Z,31.65
2023-02-15T06:31:02.578Z,31.92
2023-02-15T06:33:29.769Z,31.02
2023-02-15T06:35:57.410Z,28.52
2023-02-15T06:38:24.497Z,28.85
2023-02-15T06:40:54.136Z,29.02
2023-02-15T06:43:21.252Z,29.88
2023-02-15T06:45:48.775Z,28.23
2023-02-15T06:48:15.820Z,28.25
2023-02-15T06:50:43.352Z,27.23
2023-02-15T06:53:10.418Z,28.55
2023-02-15T06:55:37.824Z,27.20
2023-02-15T06:58:04.976Z,26.95
2023-02-15T07:00:32.502Z,27.73
2023-02-15T07:03:02.500Z,27.73
2023-02-15T07:05:29.899Z,29.27
2023-02-15T07:07:57.119Z,29.63
2023-02-15T07:10:24.649Z,30.50
2023-02-15T07:12:54.298Z,29.63
2023-02-15T07:15:22.698Z,29.33
2023-02-15T07:17:50.313Z,27.95
2023-02-15T07:20:22.920Z,28.90
2023-02-15T07:22:52.799Z,28.90
2023-02-15T07:25:20.388Z,29.48
2023-02-15T07:27:49.879Z,28.73
2023-02-15T07:30:20.534Z,30.40
2023-02-15T07:32:50.252Z,31.48
2023-02-15T07:35:19.861Z,30.98
2023-02-15T07:37:46.874Z,31.92
2023-02-15T07:40:14.312Z,31.25
2023-02-15T07:42:41.340Z,32.35
2023-02-15T07:45:11.556Z,27.80
2023-02-15T07:47:41.130Z,26.73
2023-02-15T07:50:08.723Z,30.70
2023-02-15T07:52:35.752Z,28.90
2023-02-15T07:55:03.129Z,29.77
2023-02-15T07:57:30.148Z,30.17
2023-02-15T07:59:57.664Z,30.48
2023-02-15T08:02:24.753Z,31.20
2023-02-15T08:04:52.139Z,28.27
2023-02-15T08:07:19.257Z,28.92
2023-02-15T08:09:46.631Z,28.25
2023-02-15T08:12:16.126Z,29.63
2023-02-15T08:14:45.962Z,28.98
2023-02-15T08:17:15.344Z,30.92
2023-02-15T08:19:45.273Z,37.90
2023-02-15T08:22:17.745Z,38.60
2023-02-15T08:24:46.950Z,32.85
2023-02-15T08:27:14.032Z,31.50
2023-02-15T08:29:41.461Z,30.50
2023-02-15T08:32:13.161Z,26.17
2023-02-15T08:34:42.531Z,22.17
2023-02-15T08:37:12.610Z,20.35
2023-02-15T08:39:40.087Z,22.05
2023-02-15T08:42:07.239Z,19.88
2023-02-15T08:44:34.629Z,20.02
2023-02-15T08:47:01.874Z,20.42
2023-02-15T08:49:29.239Z,21.13
2023-02-15T08:51:58.869Z,20.40
2023-02-15T08:54:26.311Z,20.05
2023-02-15T08:56:53.474Z,19.40
2023-02-15T08:59:24.287Z,20.73
2023-02-15T09:01:53.086Z,21.90
2023-02-15T09:04:23.921Z,21.75
2023-02-15T09:06:53.507Z,19.70
2023-02-15T09:09:25.367Z,18.95
2023-02-15T09:11:57.672Z,18.42
2023-02-15T09:14:26.488Z,20.17
2023-02-15T09:16:54.106Z,20.00
2023-02-15T09:19:23.110Z,18.38
2023-02-15T09:21:50.338Z,19.30
2023-02-15T09:24:22.401Z,19.92
2023-02-15T09:29:21.358Z,19.23
2023-02-15T09:31:50.461Z,19.73
2023-02-15T09:34:23.396Z,17.08
2023-02-15T09:36:51.386Z,18.70
2023-02-15T09:39:18.661Z,21.30
2023-02-15T09:42:04.197Z,33.42
2023-02-15T09:44:40.467Z,22.67
2023-02-15T09:47:22.421Z,20.42
2023-02-15T09:50:14.065Z,21.08
2023-02-15T09:53:08.811Z,20.50
2023-02-15T09:55:58.979Z,19.63
2023-02-15T09:58:41.046Z,19.35
2023-02-15T10:01:25.111Z,20.23
2023-02-15T10:04:12.521Z,19.90
2023-02-15T10:07:09.829Z,20.85
2023-02-15T10:09:55.747Z,18.90
2023-02-15T10:12:58.977Z,19.70
2023-02-15T10:15:53.744Z,20.17
2023-02-15T10:18:38.627Z,20.33
2023-02-15T10:21:49.865Z,21.33
2023-02-15T10:24:47.233Z,19.95
2023-02-15T10:27:24.794Z,23.98
2023-02-15T10:30:12.259Z,21.55
2023-02-15T10:33:07.293Z,19.70
2023-02-15T10:35:34.671Z,19.80
2023-02-15T10:38:30.601Z,18.48
2023-02-15T10:41:16.698Z,19.80
2023-02-15T10:43:55.645Z,18.67
2023-02-15T10:46:41.041Z,19.95
2023-02-15T10:49:47.568Z,20.80
2023-02-15T10:52:14.960Z,21.42
2023-02-15T10:55:00.767Z,20.95
2023-02-15T10:57:40.097Z,20.52
2023-02-15T11:00:14.720Z,20.38
2023-02-15T11:02:57.340Z,20.27
2023-02-15T11:05:58.441Z,20.13
2023-02-15T11:08:27.478Z,21.88
2023-02-15T11:11:03.679Z,22.83
2023-02-15T11:13:37.726Z,21.95
2023-02-15T11:16:12.747Z,22.58
2023-02-15T11:18:49.515Z,23.00
2023-02-15T11:21:24.789Z,23.23
2023-02-15T11:23:53.362Z,23.77
2023-02-15T11:26:42.256Z,24.77
2023-02-15T11:29:29.007Z,23.48
2023-02-15T11:32:03.507Z,24.80
2023-02-15T11:34:45.959Z,24.65
2023-02-15T11:37:21.778Z,25.33
2023-02-15T11:39:49.341Z,25.08
2023-02-15T11:42:21.857Z,25.40
2023-02-15T11:45:23.430Z,26.27
2023-02-15T11:47:50.765Z,26.00
2023-02-15T11:50:23.678Z,26.55
2023-02-15T11:53:01.828Z,27.02
2023-02-15T11:55:30.080Z,30.40
2023-02-15T11:58:15.294Z,35.00
2023-02-15T12:00:48.825Z,29.70
2023-02-15T12:03:28.817Z,28.50
2023-02-15T12:06:03.260Z,29.95
2023-02-15T12:08:45.567Z,28.70
2023-02-15T12:11:31.281Z,29.10
2023-02-15T12:14:02.839Z,27.30
2023-02-15T12:16:51.875Z,28.95
2023-02-15T12:19:21.693Z,28.40
2023-02-15T12:21:53.138Z,27.33
2023-02-15T12:24:29.710Z,27.45
2023-02-15T12:27:05.047Z,28.70
2023-02-15T12:29:40.808Z,29.13
2023-02-15T12:32:17.812Z,28.20
2023-02-15T12:34:46.167Z,28.65
2023-02-15T12:37:20.489Z,29.35
2023-02-15T12:40:02.139Z,28.10
2023-02-15T12:42:43.206Z,28.17
2023-02-15T12:45:30.717Z,27.80
2023-02-15T12:48:10.469Z,29.02
2023-02-15T12:50:37.801Z,29.45
2023-02-15T12:53:23.822Z,29.95
2023-02-15T12:55:54.763Z,28.90
2023-02-15T12:58:24.782Z,29.60
2023-02-15T13:01:10.246Z,29.02
2023-02-15T13:03:52.980Z,29.73
2023-02-15T13:06:21.607Z,32.50
2023-02-15T13:08:55.357Z,30.63
2023-02-15T13:11:33.726Z,32.13
2023-02-15T13:14:17.313Z,31.05
2023-02-15T13:16:46.741Z,29.95
2023-02-15T13:19:21.563Z,29.20
2023-02-15T13:21:51.764Z,31.58
2023-02-15T13:24:23.922Z,30.48
2023-02-15T13:26:51.850Z,31.17
2023-02-15T13:29:24.688Z,31.52
2023-02-15T13:31:54.395Z,31.13
2023-02-15T13:34:39.094Z,30.52
2023-02-15T13:37:16.206Z,31.27
2023-02-15T13:40:00.282Z,31.45
2023-02-15T13:42:52.029Z,29.35
2023-02-15T13:45:58.904Z,32.75
2023-02-15T13:48:48.462Z,30.20
2023-02-15T13:51:39.648Z,31.92
2023-02-15T13:54:07.006Z,31.67
2023-02-15T13:56:58.988Z,34.15
2023-02-15T13:59:44.254Z,32.65
2023-02-15T14:02:34.968Z,34.38
2023-02-15T14:05:23.497Z,33.83
2023-02-15T14:08:35.737Z,32.53
2023-02-15T14:11:34.102Z,31.65
2023-02-15T14:14:07.458Z,31.67
2023-02-15T14:17:06.121Z,29.80
2023-02-15T14:20:04.873Z,29.70
2023-02-15T14:22:45.362Z,30.98
2023-02-15T14:25:18.299Z,31.48
2023-02-15T14:28:11.210Z,29.38
2023-02-15T14:30:41.823Z,32.87
2023-02-15T14:33:14.849Z,31.92
2023-02-15T14:35:43.235Z,31.10
2023-02-15T14:38:22.206Z,31.80
2023-02-15T14:40:52.560Z,33.55
2023-02-15T14:43:25.574Z,29.50
2023-02-15T14:46:17.576Z,31.65
2023-02-15T14:48:51.609Z,32.03
2023-02-15T14:51:43.422Z,30.63
2023-02-15T14:54:31.211Z,31.73
2023-02-15T14:57:01.718Z,31.38
2023-02-15T14:59:51.653Z,30.00
2023-02-15T15:02:24.812Z,33.15
2023-02-15T15:05:01.365Z,30.48
2023-02-15T15:07:42.696Z,29.85
2023-02-15T15:10:15.881Z,33.33
2023-02-15T15:12:53.753Z,31.25
2023-02-15T15:15:30.096Z,31.77
2023-02-15T15:18:07.362Z,31.20
2023-02-15T15:20:50.907Z,33.35
2023-02-15T15:23:18.808Z,31.00
2023-02-15T15:26:19.837Z,31.02
2023-02-15T15:28:50.000Z,31.27
2023-02-15T15:31:23.245Z,29.52
2023-02-15T15:34:13.719Z,29.20
2023-02-15T15:37:04.638Z,31.48
2023-02-15T15:39:41.210Z,31.58
2023-02-15T15:42:26.707Z,33.40
2023-02-15T15:45:12.565Z,33.63
2023-02-15T15:47:46.828Z,32.28
2023-02-15T15:50:19.858Z,31.35
2023-02-15T15:52:55.516Z,33.72
2023-02-15T15:55:25.510Z,33.40
2023-02-15T15:58:02.017Z,31.20
2023-02-15T16:00:34.378Z,32.15
2023-02-15T16:03:01.864Z,31.27
2023-02-15T16:05:36.488Z,29.83
2023-02-15T16:08:03.669Z,32.05
2023-02-15T16:10:32.469Z,31.95
2023-02-15T16:12:59.771Z,31.55
2023-02-15T16:15:43.460Z,33.33
2023-02-15T16:18:21.188Z,36.17
2023-02-15T16:20:58.922Z,32.92
2023-02-15T16:23:38.179Z,33.25
2023-02-15T16:26:30.457Z,31.55
2023-02-15T16:28:57.735Z,31.15
2023-02-15T16:31:25.262Z,29.98
2023-02-15T16:34:00.176Z,31.25
2023-02-15T16:36:30.425Z,31.85
2023-02-15T16:38:57.541Z,32.83
2023-02-15T16:41:26.297Z,33.88
2023-02-15T16:43:55.289Z,34.15
2023-02-15T16:46:33.303Z,36.20
2023-02-15T16:49:13.293Z,34.85
2023-02-15T16:51:44.783Z,37.50
2023-02-15T16:54:23.855Z,43.60
2023-02-15T16:56:51.496Z,49.15
2023-02-15T16:59:49.367Z,54.33
2023-02-15T17:02:49.493Z,54.92
2023-02-15T17:05:18.589Z,56.05
2023-02-15T17:08:25.928Z,47.83
2023-02-15T17:11:07.733Z,45.33
2023-02-15T17:13:38.063Z,43.33
2023-02-15T17:16:05.487Z,41.60
2023-02-15T17:18:47.874Z,45.22
2023-02-15T17:21:20.102Z,45.08
2023-02-15T17:23:58.153Z,43.83
2023-02-15T17:26:30.000Z,38.35
2023-02-15T17:29:00.844Z,37.95
2023-02-15T17:31:32.366Z,42.58
2023-02-15T17:34:03.378Z,43.83
2023-02-15T17:36:32.131Z,43.13
2023-02-15T17:38:59.547Z,43.15
2023-02-15T17:41:29.718Z,44.60
2023-02-15T17:43:57.587Z,41.95
2023-02-15T17:46:30.372Z,41.20
2023-02-15T17:48:57.731Z,40.40
2023-02-15T17:51:24.951Z,41.00
2023-02-15T17:53:52.321Z,41.55
2023-02-15T17:56:21.937Z,41.80
2023-02-15T17:58:51.742Z,43.00
2023-02-15T18:01:21.185Z,42.65
2023-02-15T18:03:53.468Z,35.55
2023-02-15T18:06:20.612Z,35.78
2023-02-15T18:08:48.062Z,35.92
2023-02-15T18:11:19.596Z,37.42
2023-02-15T18:13:49.532Z,39.83
2023-02-15T18:16:22.829Z,37.85
2023-02-15T18:18:50.306Z,39.83
2023-02-15T18:21:17.370Z,42.20
2023-02-15T18:23:48.118Z,39.40
2023-02-15T18:26:22.009Z,40.25
2023-02-15T18:28:50.621Z,37.88
2023-02-15T18:31:19.134Z,39.25
2023-02-15T18:33:54.221Z,42.17
2023-02-15T18:36:27.893Z,41.50
2023-02-15T18:41:23.058Z,39.33
2023-02-15T18:43:53.024Z,40.67
2023-02-15T18:46:20.877Z,41.05
2023-02-15T18:48:50.656Z,39.08
2023-02-15T18:51:24.628Z,38.75
2023-02-15T18:53:55.690Z,38.22
2023-02-15T18:56:23.702Z,40.00
2023-02-15T18:58:53.378Z,39.00
2023-02-15T19:01:21.899Z,38.10
2023-02-15T19:03:52.030Z,37.45
2023-02-15T19:06:21.706Z,34.38
2023-02-15T19:08:53.668Z,32.67
2023-02-15T19:11:30.288Z,32.60
2023-02-15T19:13:58.016Z,32.55
2023-02-15T19:16:34.399Z,32.25
2023-02-15T19:19:02.066Z,33.13
2023-02-15T19:21:31.845Z,35.17
2023-02-15T19:24:04.785Z,34.63
2023-02-15T19:26:44.943Z,35.70
2023-02-15T19:29:15.848Z,33.95
2023-02-15T19:31:43.095Z,35.85
2023-02-15T19:34:15.823Z,34.00
2023-02-15T19:36:50.142Z,37.70
2023-02-15T19:39:32.908Z,34.53
2023-02-15T19:42:00.192Z,32.35
2023-02-15T19:44:27.616Z,35.17
2023-02-15T19:46:56.934Z,34.65
2023-02-15T19:49:24.350Z,33.83
2023-02-15T19:51:51.501Z,35.67
2023-02-15T19:54:29.356Z,34.45
2023-02-15T19:56:57.290Z,32.42
2023-02-15T19:59:32.964Z,32.80
2023-02-15T20:02:00.314Z,31.90
2023-02-15T20:04:27.909Z,31.40
2023-02-15T20:07:01.552Z,31.13
2023-02-15T20:11:57.160Z,33.17
2023-02-15T20:14:27.304Z,33.22
2023-02-15T20:16:56.942Z,29.40
2023-02-15T20:19:24.857Z,30.90
2023-02-15T20:21:52.016Z,31.17
2023-02-15T20:24:21.163Z,30.35
2023-02-15T20:26:48.386Z,31.58
2023-02-15T20:29:17.648Z,31.48
2023-02-15T20:31:46.504Z,32.47
2023-02-15T20:34:16.331Z,33.20
2023-02-15T20:36:47.911Z,33.33
2023-02-15T20:39:18.207Z,29.30
2023-02-15T20:41:47.900Z,31.20
2023-02-15T20:44:38.258Z,30.60
2023-02-15T20:47:05.341Z,28.60
2023-02-15T20:49:37.584Z,30.58
2023-02-15T20:52:18.620Z,29.45
2023-02-15T20:54:46.287Z,28.70
2023-02-15T20:57:13.479Z,28.40
2023-02-15T20:59:43.828Z,30.90
2023-02-15T21:02:19.882Z,26.88
2023-02-15T21:04:48.971Z,27.08
2023-02-15T21:07:20.971Z,28.27
2023-02-15T21:09:48.461Z,28.73
2023-02-15T21:12:18.632Z,29.13
2023-02-15T21:14:48.714Z,29.52
2023-02-15T21:17:16.616Z,30.40
2023-02-15T21:19:46.644Z,30.85
2023-02-15T21:22:15.443Z,30.13
2023-02-15T21:24:51.728Z,29.35
2023-02-15T21:27:19.068Z,29.55
2023-02-15T21:29:46.552Z,29.55
2023-02-15T21:32:16.452Z,31.00
2023-02-15T21:34:46.090Z,31.35
2023-02-15T21:37:33.102Z,31.27
2023-02-15T21:40:03.502Z,31.88
2023-02-15T21:42:30.682Z,30.98
2023-02-15T21:45:01.082Z,30.48
2023-02-15T21:47:30.607Z,32.10
2023-02-15T21:49:58.044Z,30.30
2023-02-15T21:52:27.357Z,31.55
2023-02-15T21:54:54.819Z,32.33
2023-02-15T21:57:26.341Z,32.05
2023-02-15T21:59:56.196Z,30.27
2023-02-15T22:02:31.159Z,31.67
2023-02-15T22:05:01.173Z,32.33
2023-02-15T22:07:30.457Z,33.80
2023-02-15T22:09:57.882Z,32.55
2023-02-15T22:12:24.953Z,30.83
2023-02-15T22:14:55.551Z,29.80
2023-02-15T22:17:25.968Z,29.88
2023-02-15T22:19:55.981Z,29.10
2023-02-15T22:22:26.019Z,28.75
2023-02-15T22:24:53.404Z,28.77
2023-02-15T22:27:23.986Z,29.23
2023-02-15T22:29:54.889Z,28.38
2023-02-15T22:32:24.588Z,28.25
2023-02-15T22:34:54.822Z,27.13
2023-02-15T22:37:22.146Z,25.67
2023-02-15T22:39:51.710Z,27.30
2023-02-15T22:42:27.241Z,29.38
2023-02-15T22:44:56.948Z,27.88
2023-02-15T22:47:27.493Z,29.73
2023-02-15T22:49:55.265Z,29.67
2023-02-15T22:52:22.607Z,26.70
2023-02-15T22:54:52.420Z,27.33
2023-02-15T22:57:31.811Z,27.92
2023-02-15T23:00:01.641Z,25.95
2023-02-15T23:02:28.915Z,28.67
2023-02-15T23:04:56.343Z,28.20
2023-02-15T23:07:23.426Z,28.15
2023-02-15T23:09:50.920Z,26.88
2023-02-15T23:12:30.496Z,27.88
2023-02-15T23:14:58.092Z,29.35
2023-02-15T23:17:25.189Z,29.23
2023-02-15T23:19:55.024Z,29.27
2023-02-15T23:22:22.112Z,31.88
2023-02-15T23:24:52.645Z,29.50
2023-02-15T23:27:19.897Z,29.27
2023-02-15T23:29:49.781Z,30.55
2023-02-15T23:32:17.004Z,31.70
2023-02-15T23:34:44.628Z,29.65
2023-02-15T23:37:15.561Z,28.70
2023-02-15T23:39:45.218Z,28.33
2023-02-15T23:42:21.225Z,28.98
2023-02-15T23:44:51.761Z,28.13
2023-02-15T23:47:20.267Z,26.95
2023-02-15T23:49:47.953Z,25.75
2023-02-15T23:52:15.007Z,25.92
2023-02-15T23:54:42.405Z,24.52
2023-02-15T23:57:11.380Z,32.13
2023-02-15T23:59:43.172Z,27.52
